createdAt,value
2023-02-11T00:01:20.085Z,-1.27
2023-02-11T00:11:21.401Z,-1.22
2023-02-11T00:21:22.669Z,-1.20
2023-02-11T00:31:24.109Z,-1.18
2023-02-11T00:41:26.099Z,-1.04
2023-02-11T00:51:27.384Z,-0.91
2023-02-11T01:01:28.748Z,-0.78
2023-02-11T01:11:30.087Z,-0.66
2023-02-11T01:21:31.410Z,-0.49
2023-02-11T01:31:32.902Z,-0.33
2023-02-11T01:41:34.296Z,-0.31
2023-02-11T01:51:35.679Z,-0.23
2023-02-11T02:01:37.023Z,-0.18
2023-02-11T02:11:38.348Z,-0.17
2023-02-11T02:21:39.617Z,-0.07
2023-02-11T02:31:40.911Z,-0.01
2023-02-11T02:41:42.213Z,-0.01
2023-02-11T02:51:43.609Z,0.06
2023-02-11T03:01:45.505Z,0.13
2023-02-11T03:11:46.787Z,0.20
2023-02-11T03:21:48.282Z,0.28
2023-02-11T03:31:49.623Z,0.33
2023-02-11T03:41:51.060Z,0.37
2023-02-11T03:51:52.347Z,0.48
2023-02-11T04:01:53.652Z,0.54
2023-02-11T04:11:54.969Z,0.54
2023-02-11T04:21:56.313Z,0.47
2023-02-11T04:31:57.638Z,0.48
2023-02-11T04:41:58.919Z,0.55
2023-02-11T04:52:00.195Z,0.67
2023-02-11T05:02:01.871Z,0.54
2023-02-11T05:12:03.186Z,0.59
2023-02-11T05:22:04.532Z,0.47
2023-02-11T05:32:07.310Z,0.33
2023-02-11T05:42:08.595Z,0.25
2023-02-11T05:52:09.882Z,0.15
2023-02-11T06:02:11.335Z,-0.01
2023-02-11T06:12:12.708Z,-0.19
2023-02-11T06:22:13.994Z,-0.25
2023-02-11T06:32:36.473Z,-0.11
2023-02-11T06:42:38.780Z,0.02
2023-02-11T06:52:40.070Z,0.28
2023-02-11T07:02:41.447Z,0.34
2023-02-11T07:12:42.782Z,0.46
2023-02-11T07:22:44.072Z,0.46
2023-02-11T07:32:45.366Z,0.57
2023-02-11T07:42:46.676Z,0.64
2023-02-11T07:52:47.953Z,0.59
2023-02-11T08:02:49.241Z,0.49
2023-02-11T08:12:50.549Z,0.57
2023-02-11T08:22:51.804Z,0.77
2023-02-11T08:32:53.074Z,1.13
2023-02-11T08:42:54.363Z,1.54
2023-02-11T08:52:55.668Z,1.62
2023-02-11T09:02:57.287Z,1.99
2023-02-11T09:12:58.638Z,2.42
2023-02-11T09:23:00.017Z,2.76
2023-02-11T09:33:01.708Z,3.24
2023-02-11T09:43:04.272Z,3.75
2023-02-11T09:53:05.680Z,4.07
2023-02-11T10:03:06.968Z,4.34
2023-02-11T10:13:08.288Z,4.44
2023-02-11T10:23:09.576Z,4.76
2023-02-11T10:33:10.838Z,5.21
2023-02-11T10:43:12.502Z,5.40
2023-02-11T10:53:13.772Z,5.57
2023-02-11T11:03:15.044Z,6.03
2023-02-11T11:13:16.337Z,6.28
2023-02-11T11:23:17.677Z,6.43
2023-02-11T11:33:18.973Z,6.55
2023-02-11T11:43:23.118Z,6.62
2023-02-11T11:53:24.624Z,6.49
2023-02-11T12:03:26.000Z,6.66
2023-02-11T12:13:27.344Z,6.83
2023-02-11T12:23:28.618Z,6.98
2023-02-11T12:33:29.915Z,7.19
2023-02-11T12:43:31.226Z,7.30
2023-02-11T12:53:33.554Z,7.43
2023-02-11T13:03:34.886Z,7.84
2023-02-11T13:13:36.193Z,8.07
2023-02-11T13:23:37.504Z,8.44
2023-02-11T13:33:39.610Z,8.64
2023-02-11T13:43:40.934Z,8.66
2023-02-11T13:53:42.214Z,8.75
2023-02-11T14:04:02.222Z,8.60
2023-02-11T14:14:03.543Z,8.63
2023-02-11T14:24:05.039Z,8.88
2023-02-11T14:34:06.451Z,8.72
2023-02-11T14:44:07.750Z,8.69
2023-02-11T14:54:09.061Z,8.73
2023-02-11T15:04:10.349Z,8.64
2023-02-11T15:14:11.675Z,8.35
2023-02-11T15:24:13.003Z,8.29
2023-02-11T15:34:14.282Z,8.16
2023-02-11T15:44:15.566Z,8.03
2023-02-11T15:54:17.045Z,8.09
2023-02-11T16:04:18.388Z,8.02
2023-02-11T16:14:19.683Z,7.84
2023-02-11T16:24:23.858Z,7.85
2023-02-11T16:34:25.171Z,7.58
2023-02-11T16:44:26.456Z,7.55
2023-02-11T16:54:27.766Z,7.43
2023-02-11T17:04:29.215Z,7.15
2023-02-11T17:14:30.588Z,6.99
2023-02-11T17:24:31.909Z,6.96
2023-02-11T17:34:33.230Z,6.94
2023-02-11T17:44:34.519Z,6.89
2023-02-11T17:54:35.853Z,6.84
2023-02-11T18:04:37.171Z,6.69
2023-02-11T18:14:38.497Z,6.68
2023-02-11T18:24:39.791Z,6.55
2023-02-11T18:34:41.185Z,6.47
2023-02-11T18:44:42.527Z,6.45
2023-02-11T18:54:43.812Z,6.32
2023-02-11T19:04:45.272Z,6.23
2023-02-11T19:14:46.638Z,6.25
2023-02-11T19:24:47.947Z,6.27
2023-02-11T19:34:49.329Z,6.09
2023-02-11T19:44:50.631Z,6.04
2023-02-11T19:54:51.939Z,6.15
2023-02-11T20:04:53.238Z,6.14
2023-02-11T20:14:54.548Z,6.09
2023-02-11T20:24:55.986Z,6.03
2023-02-11T20:34:57.293Z,6.08
2023-02-11T20:44:58.587Z,5.91
2023-02-11T20:55:01.641Z,5.94
2023-02-11T21:05:02.954Z,5.92
2023-02-11T21:15:05.349Z,5.91
2023-02-11T21:25:06.700Z,5.80
2023-02-11T21:35:07.985Z,5.77
2023-02-11T21:45:09.311Z,5.82
2023-02-11T21:55:10.582Z,5.79
2023-02-11T22:05:11.887Z,5.79
2023-02-11T22:15:13.208Z,5.72
2023-02-11T22:25:14.501Z,5.72
2023-02-11T22:35:15.807Z,5.71
2023-02-11T22:45:17.076Z,5.71
2023-02-11T22:55:18.382Z,5.62
2023-02-11T23:05:19.687Z,5.57
2023-02-11T23:15:20.971Z,5.50
2023-02-11T23:25:22.265Z,5.54
2023-02-11T23:35:24.774Z,5.41
2023-02-11T23:45:26.108Z,5.43
2023-02-11T23:55:27.427Z,5.46
